Time;durP1;ratioP1;P1;durP2;ratioP2;P2;SDS_P1;SDS_P2;PMS_P1;PMS_P2;Temp;Humidity;BMP_temperature;BMP_pressure;BME280_temperature;BME280_humidity;BME280_pressure;Samples;Min_cycle;Max_cycle;Signal;HPM_P1;HPM_P2
2022/11/02 00:02:01;;;;;;;10.20;1.87;;;13.30;1.00;;;;;;5062208;28;20208;-55
2022/11/02 00:04:28;;;;;;;7.47;1.23;;;13.30;80.70;;;;;;5069642;28;20259;-55
2022/11/02 00:06:54;;;;;;;2.83;1.03;;;13.20;99.90;;;;;;5076646;28;20604;-55
2022/11/02 00:09:21;;;;;;;4.93;1.20;;;13.10;1.00;;;;;;5069412;28;20199;-54
2022/11/02 00:11:49;;;;;;;8.07;1.90;;;13.20;1.00;;;;;;5068105;28;20221;-55
2022/11/02 00:14:15;;;;;;;4.53;1.20;;;13.20;1.00;;;;;;5065030;28;20206;-54
2022/11/02 00:16:42;;;;;;;8.13;1.40;;;13.20;99.90;;;;;;5067870;28;20203;-55
2022/11/02 00:19:10;;;;;;;8.10;1.23;;;13.20;99.90;;;;;;5065100;28;20229;-57
2022/11/02 00:21:37;;;;;;;4.50;1.23;;;13.20;1.00;;;;;;5060189;28;20291;-56
2022/11/02 00:24:06;;;;;;;9.37;1.50;;;13.20;1.00;;;;;;5072696;28;20233;-56
2022/11/02 00:26:35;;;;;;;8.43;1.47;;;13.30;99.90;;;;;;5065172;28;20216;-56
2022/11/02 00:29:03;;;;;;;4.63;1.40;;;13.30;99.90;;;;;;5051666;28;20229;-56
2022/11/02 00:31:30;;;;;;;7.30;1.23;;;13.30;1.00;;;;;;5058872;28;20209;-55
2022/11/02 00:33:57;;;;;;;3.20;1.67;;;13.40;1.00;;;;;;5060827;28;20194;-56
2022/11/02 00:36:24;;;;;;;5.93;1.17;;;13.30;1.00;;;;;;5059123;28;20213;-56
2022/11/02 00:38:51;;;;;;;4.77;1.33;;;13.30;1.00;;;;;;5064732;28;20231;-54
2022/11/02 00:41:20;;;;;;;6.87;1.60;;;13.40;1.00;;;;;;5062451;28;20202;-53
2022/11/02 00:43:46;;;;;;;6.80;1.40;;;13.40;1.00;;;;;;5061191;28;20199;-55
2022/11/02 00:46:13;;;;;;;6.87;1.37;;;13.40;99.90;;;;;;5063118;28;20197;-54
2022/11/02 00:48:40;;;;;;;7.10;1.80;;;13.40;1.00;;;;;;5062842;28;20726;-53
2022/11/02 00:51:07;;;;;;;5.33;1.50;;;13.40;1.00;;;;;;5063638;28;20201;-55
2022/11/02 00:53:33;;;;;;;5.07;1.43;;;13.50;1.00;;;;;;5064861;28;20218;-55
2022/11/02 00:56:00;;;;;;;6.07;1.20;;;13.40;1.00;;;;;;5060054;28;20205;-58
2022/11/02 00:58:27;;;;;;;7.10;1.50;;;13.40;99.90;;;;;;5058050;28;20198;-55
2022/11/02 01:00:55;;;;;;;6.63;1.30;;;13.40;1.00;;;;;;5071105;28;20247;-58
2022/11/02 01:03:22;;;;;;;5.27;1.00;;;13.40;1.00;;;;;;5061855;28;20287;-55
2022/11/02 01:05:49;;;;;;;9.73;1.50;;;13.40;1.00;;;;;;5067309;28;20202;-55
2022/11/02 01:08:15;;;;;;;2.50;1.03;;;13.40;1.00;;;;;;5066852;28;20240;-56
2022/11/02 01:10:42;;;;;;;6.77;1.10;;;13.40;1.00;;;;;;5068965;28;20224;-55
2022/11/02 01:13:14;;;;;;;10.20;1.47;;;13.40;1.00;;;;;;5065839;28;20858;-54
2022/11/02 01:15:41;;;;;;;6.53;1.20;;;13.40;1.00;;;;;;5064891;28;20297;-55
2022/11/02 01:18:08;;;;;;;5.93;1.43;;;13.30;99.90;;;;;;5067527;28;20695;-55
2022/11/02 01:20:35;;;;;;;7.87;1.63;;;13.30;1.00;;;;;;5068787;28;20199;-54
2022/11/02 01:23:02;;;;;;;5.00;1.37;;;13.30;99.90;;;;;;5067345;28;20218;-55
2022/11/02 01:25:28;;;;;;;4.43;0.83;;;13.30;99.90;;;;;;5064604;28;20759;-55
2022/11/02 01:27:55;;;;;;;2.87;1.00;;;13.20;99.90;;;;;;5058865;28;20222;-54
2022/11/02 01:30:22;;;;;;;6.50;1.20;;;13.20;1.00;;;;;;5058215;28;20205;-55
2022/11/02 01:32:49;;;;;;;2.23;1.10;;;13.20;1.00;;;;;;5059155;28;20199;-55
2022/11/02 01:35:16;;;;;;;4.90;1.07;;;13.20;1.00;;;;;;5060219;28;20198;-55
2022/11/02 01:37:42;;;;;;;7.40;1.13;;;13.20;1.00;;;;;;5058391;28;20209;-54
2022/11/02 01:40:09;;;;;;;7.30;1.43;;;13.20;1.00;;;;;;5063770;28;20565;-55
2022/11/02 01:42:36;;;;;;;3.23;0.70;;;13.20;1.00;;;;;;5059593;28;20215;-55
2022/11/02 01:45:03;;;;;;;2.83;1.10;;;13.30;99.90;;;;;;5061791;28;20203;-55
2022/11/02 01:47:39;;;;;;;5.57;1.27;;;13.30;99.90;;;;;;5062308;28;20498;-54
2022/11/02 01:50:11;;;;;;;5.07;1.30;;;13.20;99.90;;;;;;5060881;28;20240;-55
2022/11/02 01:52:38;;;;;;;3.43;0.90;;;13.30;85.30;;;;;;5063038;28;20207;-55
2022/11/02 01:55:15;;;;;;;4.83;1.63;;;13.30;92.10;;;;;;5062269;28;20198;-55
2022/11/02 01:57:47;;;;;;;4.10;1.20;;;13.20;1.00;;;;;;5059299;28;20202;-55
2022/11/02 02:00:17;;;;;;;5.67;1.30;;;13.20;1.00;;;;;;5062861;28;20211;-55
2022/11/02 02:02:54;;;;;;;4.83;1.00;;;13.20;1.00;;;;;;5065213;28;20199;-55
2022/11/02 02:05:23;;;;;;;5.03;1.20;;;13.10;1.00;;;;;;5065973;28;20218;-55
2022/11/02 02:07:50;;;;;;;7.33;1.30;;;13.10;1.00;;;;;;5066914;28;20238;-55
2022/11/02 02:10:18;;;;;;;5.57;1.40;;;13.00;1.00;;;;;;5064693;28;20229;-54
2022/11/02 02:12:46;;;;;;;5.30;1.10;;;13.00;1.00;;;;;;5066500;28;20201;-55
2022/11/02 02:15:13;;;;;;;4.17;1.50;;;13.00;1.00;;;;;;5069751;28;20198;-55
2022/11/02 02:18:10;;;;;;;4.97;1.10;;;12.80;1.00;;;;;;5064105;28;20661;-55
2022/11/02 02:20:43;;;;;;;3.10;1.10;;;12.80;1.00;;;;;;5059925;28;20206;-55
2022/11/02 02:23:38;;;;;;;4.10;1.20;;;12.70;99.90;;;;;;5070673;28;20214;-55
2022/11/02 02:26:26;;;;;;;5.93;1.17;;;12.60;99.90;;;;;;5070792;28;20194;-55
2022/11/02 02:29:00;;;;;;;6.70;1.10;;;12.50;1.00;;;;;;5069584;28;20192;-55
2022/11/02 02:31:44;;;;;;;2.07;0.80;;;12.50;1.00;;;;;;5069886;28;20191;-54
2022/11/02 02:34:15;;;;;;;4.43;1.20;;;12.50;1.00;;;;;;5062204;28;20577;-54
2022/11/02 02:36:46;;;;;;;3.47;1.27;;;12.50;1.00;;;;;;5067682;28;20206;-54
2022/11/02 02:39:25;;;;;;;7.53;1.43;;;12.50;1.00;;;;;;5066785;28;20585;-54
2022/11/02 02:42:21;;;;;;;5.73;0.90;;;12.50;1.00;;;;;;5079423;28;20210;-54
2022/11/02 02:45:14;;;;;;;7.70;1.13;;;12.40;99.90;;;;;;5062342;28;20285;-54
2022/11/02 02:47:54;;;;;;;6.27;1.10;;;12.40;99.90;;;;;;5059904;28;20230;-54
2022/11/02 02:50:26;;;;;;;9.40;1.37;;;12.40;99.90;;;;;;5066609;28;20191;-54
2022/11/02 02:52:54;;;;;;;9.20;1.13;;;12.40;1.00;;;;;;5070707;28;20625;-55
2022/11/02 02:55:26;;;;;;;7.00;0.80;;;12.40;1.00;;;;;;5070006;28;20545;-55
2022/11/02 02:57:54;;;;;;;2.83;1.00;;;12.40;1.00;;;;;;5066360;28;20210;-55
2022/11/02 03:00:21;;;;;;;6.77;1.03;;;12.40;1.00;;;;;;5065742;28;20199;-55
2022/11/02 03:03:01;;;;;;;8.70;1.30;;;12.40;1.00;;;;;;5066472;28;20673;-54
2022/11/02 03:05:31;;;;;;;6.43;1.27;;;12.50;1.00;;;;;;5063949;28;21598;-55
2022/11/02 03:08:06;;;;;;;4.03;1.00;;;12.50;99.90;;;;;;5061254;28;20585;-55
2022/11/02 03:10:47;;;;;;;7.07;1.27;;;12.50;1.00;;;;;;5064562;28;20233;-55
2022/11/02 03:13:35;;;;;;;3.10;1.00;;;12.40;1.00;;;;;;5066482;28;20202;-55
2022/11/02 03:16:10;;;;;;;8.53;1.20;;;12.50;99.90;;;;;;5064994;28;20198;-55
2022/11/02 03:19:07;;;;;;;5.40;1.20;;;12.50;99.90;;;;;;5065679;28;20201;-56
2022/11/02 03:21:42;;;;;;;7.73;1.13;;;12.50;1.00;;;;;;5062981;28;20621;-55
2022/11/02 03:24:14;;;;;;;10.70;1.60;;;12.50;1.00;;;;;;5061493;28;20202;-55
2022/11/02 03:26:47;;;;;;;6.03;1.43;;;12.50;1.00;;;;;;5066434;28;20202;-55
2022/11/02 03:29:41;;;;;;;5.20;0.80;;;12.60;99.90;;;;;;5060398;28;20222;-55
2022/11/02 03:32:15;;;;;;;7.27;1.40;;;12.60;99.90;;;;;;5065602;28;20671;-55
2022/11/02 03:34:56;;;;;;;7.63;1.17;;;12.50;99.90;;;;;;5062718;28;20195;-55
2022/11/02 03:37:37;;;;;;;7.27;1.93;;;12.60;99.90;;;;;;5065514;28;20205;-55
2022/11/02 03:40:10;;;;;;;9.20;1.80;;;12.70;1.00;;;;;;5060984;28;20198;-54
2022/11/02 03:42:40;;;;;;;5.83;1.10;;;12.70;52.20;;;;;;5065077;28;20217;-55
2022/11/02 03:45:14;;;;;;;7.93;1.30;;;12.60;1.00;;;;;;5066421;28;20196;-56
2022/11/02 03:47:45;;;;;;;5.10;1.93;;;12.60;1.00;;;;;;5063964;28;20229;-54
2022/11/02 03:50:17;;;;;;;8.87;1.33;;;12.70;1.00;;;;;;5066898;28;20199;-55
2022/11/02 03:52:45;;;;;;;9.33;2.00;;;12.60;1.00;;;;;;5063430;28;20206;-55
2022/11/02 03:55:21;;;;;;;8.80;1.87;;;12.70;1.00;;;;;;5063333;28;20195;-59
2022/11/02 03:57:50;;;;;;;11.40;2.13;;;12.70;1.00;;;;;;5063436;28;20206;-55
2022/11/02 04:00:26;;;;;;;8.00;1.30;;;12.60;1.00;;;;;;5063391;28;20512;-55
2022/11/02 04:02:56;;;;;;;10.17;1.60;;;12.60;1.00;;;;;;5067564;28;20562;-55
2022/11/02 04:05:31;;;;;;;12.00;1.40;;;12.70;1.00;;;;;;5070097;28;20226;-55
2022/11/02 04:16:15;;;;;;;8.40;1.30;;;12.70;1.00;;;;;;5066209;28;20496;-55
2022/11/02 04:21:29;;;;;;;8.00;1.47;;;12.60;1.00;;;;;;5069035;28;20214;-55
2022/11/02 04:26:41;;;;;;;6.67;1.53;;;12.60;1.00;;;;;;5069751;28;20220;-55
2022/11/02 04:29:09;;;;;;;9.07;1.57;;;12.60;37.90;;;;;;5067146;28;20219;-55
2022/11/02 04:31:36;;;;;;;6.43;1.33;;;12.60;1.00;;;;;;5070161;28;20203;-56
2022/11/02 04:34:02;;;;;;;6.63;1.33;;;12.60;1.00;;;;;;5063234;28;20197;-55
2022/11/02 04:36:30;;;;;;;8.17;1.60;;;12.60;1.00;;;;;;5064322;28;20602;-55
2022/11/02 04:38:58;;;;;;;8.63;1.67;;;12.60;1.00;;;;;;5062709;28;20202;-55
2022/11/02 04:41:40;;;;;;;11.07;2.27;;;12.60;15.60;;;;;;5065022;28;20232;-55
2022/11/02 04:44:09;;;;;;;8.57;1.53;;;12.60;1.00;;;;;;5060563;28;20211;-55
2022/11/02 04:46:37;;;;;;;6.07;1.90;;;12.60;1.00;;;;;;5066131;28;20570;-55
2022/11/02 04:49:05;;;;;;;11.90;1.97;;;12.60;1.00;;;;;;5063889;28;20255;-55
2022/11/02 04:51:32;;;;;;;7.63;1.67;;;12.70;1.00;;;;;;5062484;28;20200;-55
2022/11/02 04:53:59;;;;;;;8.67;1.23;;;12.60;1.00;;;;;;5061604;28;20269;-55
2022/11/02 04:56:27;;;;;;;8.87;1.30;;;12.70;1.00;;;;;;5064236;28;20589;-56
2022/11/02 04:58:56;;;;;;;5.87;1.20;;;12.60;1.00;;;;;;5061568;28;20209;-54
2022/11/02 05:01:24;;;;;;;13.97;1.93;;;12.60;1.00;;;;;;5062583;28;20193;-54
2022/11/02 05:03:53;;;;;;;6.83;1.80;;;12.60;1.00;;;;;;5062802;28;20205;-54
2022/11/02 05:06:21;;;;;;;10.80;1.60;;;12.60;58.20;;;;;;5059823;28;20235;-54
2022/11/02 05:08:49;;;;;;;5.20;1.40;;;12.60;1.00;;;;;;5063155;28;20218;-54
2022/11/02 05:11:16;;;;;;;7.77;1.50;;;12.60;1.00;;;;;;5061224;28;20218;-55
2022/11/02 05:13:44;;;;;;;8.07;1.50;;;12.60;1.00;;;;;;5060666;28;20211;-55
2022/11/02 05:16:12;;;;;;;9.70;1.77;;;12.60;1.00;;;;;;5066362;28;20224;-55
2022/11/02 05:18:40;;;;;;;7.70;1.70;;;12.50;1.00;;;;;;5057879;28;20207;-55
2022/11/02 05:21:08;;;;;;;11.90;1.77;;;12.60;1.00;;;;;;5063293;28;20200;-54
2022/11/02 05:23:34;;;;;;;6.50;1.43;;;12.60;1.00;;;;;;5057804;28;20211;-54
2022/11/02 05:26:05;;;;;;;10.37;1.70;;;12.50;1.00;;;;;;5068593;28;20205;-54
2022/11/02 05:28:32;;;;;;;7.60;1.37;;;12.60;1.00;;;;;;5060117;28;20217;-54
2022/11/02 05:31:00;;;;;;;8.00;1.63;;;12.50;1.00;;;;;;5061728;28;20830;-54
2022/11/02 05:33:29;;;;;;;8.50;1.90;;;12.50;1.00;;;;;;5059775;28;20193;-53
2022/11/02 05:35:58;;;;;;;9.77;1.60;;;12.40;1.00;;;;;;5062373;28;20203;-54
2022/11/02 05:38:26;;;;;;;5.13;1.30;;;12.40;1.00;;;;;;5062116;28;20798;-54
2022/11/02 05:40:58;;;;;;;9.23;1.90;;;12.30;1.00;;;;;;5061518;28;20200;-54
2022/11/02 05:43:25;;;;;;;8.73;1.77;;;12.30;14.40;;;;;;5061405;28;20359;-54
2022/11/02 05:45:57;;;;;;;11.43;2.00;;;12.20;99.90;;;;;;5062424;28;20205;-54
2022/11/02 05:48:25;;;;;;;7.50;1.23;;;12.20;59.70;;;;;;5064867;28;20259;-54
2022/11/02 05:50:57;;;;;;;8.43;1.40;;;12.20;99.90;;;;;;5068233;28;20212;-54
2022/11/02 05:53:25;;;;;;;9.47;1.47;;;12.20;64.60;;;;;;5062072;28;20194;-54
2022/11/02 05:55:56;;;;;;;9.20;1.70;;;12.10;99.90;;;;;;5069019;28;20262;-54
2022/11/02 05:58:24;;;;;;;6.73;1.23;;;12.10;99.90;;;;;;5064014;28;21178;-54
2022/11/02 06:00:51;;;;;;;6.47;2.13;;;12.10;99.90;;;;;;5065270;28;20290;-56
2022/11/02 06:03:18;;;;;;;6.70;1.70;;;12.10;94.50;;;;;;5069872;28;20753;-54
2022/11/02 06:05:45;;;;;;;6.80;1.43;;;12.10;99.90;;;;;;5067768;28;21603;-54
2022/11/02 06:08:12;;;;;;;6.60;1.30;;;12.10;87.20;;;;;;5065590;28;20243;-54
2022/11/02 06:10:42;;;;;;;6.30;1.30;;;12.00;99.90;;;;;;5064542;28;20224;-54
2022/11/02 06:13:09;;;;;;;8.23;1.50;;;11.90;99.90;;;;;;5068124;28;20674;-54
2022/11/02 06:15:35;;;;;;;10.00;1.40;;;11.90;99.90;;;;;;5065861;28;20214;-54
2022/11/02 06:18:02;;;;;;;8.70;1.53;;;11.90;99.90;;;;;;5067803;28;20201;-54
2022/11/02 06:20:29;;;;;;;5.97;1.43;;;11.90;99.90;;;;;;5067017;28;20282;-54
2022/11/02 06:22:56;;;;;;;8.67;1.73;;;11.80;99.90;;;;;;5069784;28;20233;-54
2022/11/02 06:25:23;;;;;;;10.57;1.37;;;11.80;99.90;;;;;;5068320;28;20232;-53
2022/11/02 06:27:55;;;;;;;4.80;1.37;;;11.80;1.00;;;;;;5066925;28;20664;-54
2022/11/02 06:30:23;;;;;;;9.00;1.37;;;11.70;1.00;;;;;;5064526;28;20197;-54
2022/11/02 06:32:52;;;;;;;7.63;1.53;;;11.70;1.00;;;;;;5067922;28;20261;-55
2022/11/02 06:35:20;;;;;;;6.27;1.27;;;11.70;1.00;;;;;;5063537;28;20909;-54
2022/11/02 06:37:47;;;;;;;11.47;1.50;;;11.70;1.00;;;;;;5062133;28;20678;-57
2022/11/02 06:40:14;;;;;;;5.33;1.77;;;11.60;1.00;;;;;;5062120;28;20203;-55
2022/11/02 06:42:41;;;;;;;8.93;1.57;;;11.60;1.00;;;;;;4701084;28;10000155;-54
2022/11/02 06:45:23;;;;;;;6.97;1.30;;;11.60;1.00;;;;;;5057051;28;20785;-55
2022/11/02 06:47:50;;;;;;;8.03;1.43;;;11.60;1.00;;;;;;5060541;28;20288;-56
2022/11/02 06:50:16;;;;;;;11.07;1.43;;;11.60;1.00;;;;;;5059860;28;20198;-54
2022/11/02 06:52:45;;;;;;;9.63;1.50;;;11.60;1.00;;;;;;5062182;28;20203;-55
2022/11/02 06:55:13;;;;;;;11.17;1.63;;;11.60;1.00;;;;;;5064194;28;20233;-55
2022/11/02 06:57:42;;;;;;;5.57;1.23;;;11.60;1.00;;;;;;5069743;28;20192;-54
2022/11/02 07:00:12;;;;;;;8.57;2.03;;;11.60;1.00;;;;;;5051811;28;20203;-53
2022/11/02 07:02:44;;;;;;;5.43;1.17;;;11.60;1.00;;;;;;5056707;28;20194;-54
2022/11/02 07:05:11;;;;;;;5.33;1.10;;;11.60;1.00;;;;;;5058672;28;20676;-53
2022/11/02 07:07:38;;;;;;;6.17;1.40;;;11.60;1.00;;;;;;5055643;28;20769;-55
2022/11/02 07:10:07;;;;;;;7.10;1.60;;;11.60;1.00;;;;;;5062226;28;20574;-54
2022/11/02 07:12:34;;;;;;;4.77;1.40;;;11.60;1.00;;;;;;5060034;28;20215;-54
2022/11/02 07:15:01;;;;;;;8.43;1.57;;;11.60;1.00;;;;;;5060339;28;20761;-54
2022/11/02 07:17:28;;;;;;;6.67;1.20;;;11.60;1.00;;;;;;5056204;28;20195;-54
2022/11/02 07:19:57;;;;;;;13.07;2.40;;;11.60;99.90;;;;;;5048887;28;20251;-54
2022/11/02 07:22:24;;;;;;;8.33;1.97;;;11.60;1.00;;;;;;5065049;28;20202;-54
2022/11/02 07:24:51;;;;;;;9.73;1.90;;;11.50;99.90;;;;;;5068165;28;20301;-54
2022/11/02 07:27:19;;;;;;;6.97;1.30;;;11.60;99.90;;;;;;5069972;28;20673;-55
2022/11/02 07:29:46;;;;;;;7.40;1.27;;;11.70;99.90;;;;;;5068690;28;20809;-57
2022/11/02 07:32:13;;;;;;;8.67;1.63;;;11.70;99.90;;;;;;5074812;28;20233;-55
2022/11/02 07:34:40;;;;;;;6.53;1.20;;;11.80;99.90;;;;;;5074138;28;20198;-55
2022/11/02 07:37:07;;;;;;;10.07;1.50;;;11.80;91.50;;;;;;5065730;28;20203;-54
2022/11/02 07:39:34;;;;;;;10.27;1.77;;;11.70;99.90;;;;;;5078553;28;20247;-54
2022/11/02 07:42:00;;;;;;;9.87;1.50;;;11.70;99.90;;;;;;5067672;28;20203;-54
2022/11/02 07:44:29;;;;;;;8.23;1.50;;;11.80;99.90;;;;;;5065086;28;20203;-54
2022/11/02 07:46:56;;;;;;;7.60;1.30;;;11.70;99.90;;;;;;5067049;28;20204;-54
2022/11/02 07:49:23;;;;;;;6.00;1.53;;;11.80;99.90;;;;;;5068405;28;20770;-57
2022/11/02 07:51:50;;;;;;;7.87;1.73;;;11.80;99.90;;;;;;5064611;28;20224;-53
2022/11/02 07:54:17;;;;;;;10.83;2.23;;;11.90;99.90;;;;;;5066934;28;20191;-54
2022/11/02 07:56:44;;;;;;;6.00;2.17;;;11.90;99.90;;;;;;5058218;28;20606;-54
2022/11/02 07:59:14;;;;;;;10.07;1.77;;;12.00;99.90;;;;;;5055913;28;22820;-54
2022/11/02 08:01:40;;;;;;;8.67;1.27;;;12.00;99.90;;;;;;5066299;28;20196;-54
2022/11/02 08:04:07;;;;;;;7.73;1.63;;;12.10;99.90;;;;;;5061818;28;20230;-54
2022/11/02 08:06:34;;;;;;;7.43;1.13;;;12.20;91.30;;;;;;5061314;28;20214;-54
2022/11/02 08:09:02;;;;;;;3.50;1.47;;;12.10;99.90;;;;;;5056145;28;20234;-55
2022/11/02 08:11:28;;;;;;;7.70;1.20;;;12.20;99.90;;;;;;5059906;28;20226;-55
2022/11/02 08:13:55;;;;;;;9.80;1.50;;;12.10;99.90;;;;;;5063924;28;20285;-54
2022/11/02 08:16:22;;;;;;;7.70;1.70;;;12.10;99.90;;;;;;5065019;28;20202;-55
2022/11/02 08:18:49;;;;;;;12.90;1.57;;;12.10;99.90;;;;;;5057131;28;20198;-55
2022/11/02 08:21:15;;;;;;;8.43;1.40;;;12.20;99.90;;;;;;5060454;28;20749;-54
2022/11/02 08:23:42;;;;;;;6.73;1.40;;;12.20;99.90;;;;;;5070280;28;20404;-53
2022/11/02 08:26:09;;;;;;;10.43;1.40;;;12.30;99.90;;;;;;5068382;28;20204;-55
2022/11/02 08:28:39;;;;;;;6.27;2.80;;;12.50;99.90;;;;;;5066759;28;20225;-54
2022/11/02 08:31:10;;;;;;;8.60;1.87;;;12.60;1.00;;;;;;5063123;28;20200;-55
2022/11/02 08:33:37;;;;;;;7.23;1.40;;;12.80;1.00;;;;;;5060936;28;20538;-55
2022/11/02 08:36:04;;;;;;;8.93;2.13;;;12.80;1.00;;;;;;5065553;28;20203;-54
2022/11/02 08:38:31;;;;;;;5.90;1.43;;;13.00;1.00;;;;;;5065364;28;21108;-54
2022/11/02 08:40:58;;;;;;;13.93;1.40;;;13.00;1.00;;;;;;5058380;28;20205;-55
2022/11/02 08:43:25;;;;;;;8.67;1.23;;;13.10;1.00;;;;;;5053431;28;20203;-55
2022/11/02 08:45:52;;;;;;;8.00;1.47;;;13.20;1.00;;;;;;5067828;28;20668;-59
2022/11/02 08:48:39;;;;;;;7.97;1.40;;;13.20;1.00;;;;;;5053569;28;20230;-54
2022/11/02 08:51:07;;;;;;;7.07;1.30;;;13.40;1.00;;;;;;5064207;28;20193;-55
2022/11/02 08:53:34;;;;;;;5.40;1.30;;;13.40;99.90;;;;;;5063106;28;20290;-56
2022/11/02 08:56:01;;;;;;;5.20;1.60;;;13.40;99.90;;;;;;5057805;28;20273;-55
2022/11/02 08:58:28;;;;;;;8.27;2.27;;;13.60;99.90;;;;;;5061685;28;20201;-55
2022/11/02 09:00:55;;;;;;;7.20;2.00;;;13.80;99.90;;;;;;5059183;28;20536;-55
2022/11/02 09:03:23;;;;;;;7.43;1.90;;;13.80;99.90;;;;;;5063253;28;20194;-55
2022/11/02 09:05:59;;;;;;;6.77;1.27;;;13.90;60.90;;;;;;5050701;28;20789;-54
2022/11/02 09:08:26;;;;;;;5.33;1.27;;;13.90;1.00;;;;;;5059119;28;20232;-56
2022/11/02 09:10:58;;;;;;;7.80;1.50;;;14.00;1.00;;;;;;5052718;28;20288;-55
2022/11/02 09:13:25;;;;;;;12.33;1.90;;;14.10;1.00;;;;;;5055503;28;20207;-55
2022/11/02 09:15:54;;;;;;;9.33;1.90;;;13.90;1.00;;;;;;5054647;28;20252;-56
2022/11/02 09:18:21;;;;;;;9.37;1.60;;;13.90;64.40;;;;;;5062139;28;20199;-55
2022/11/02 09:20:48;;;;;;;8.30;1.60;;;14.20;1.00;;;;;;5062695;28;20299;-55
2022/11/02 09:23:19;;;;;;;9.00;1.43;;;14.30;1.00;;;;;;5060447;28;20210;-55
2022/11/02 09:25:47;;;;;;;9.20;2.00;;;14.50;1.00;;;;;;5060364;28;20648;-55
2022/11/02 09:28:15;;;;;;;6.27;1.93;;;14.40;1.00;;;;;;5055877;28;20514;-54
2022/11/02 09:30:42;;;;;;;4.90;1.57;;;14.30;1.00;;;;;;5060959;28;20222;-55
2022/11/02 09:33:09;;;;;;;9.10;1.73;;;14.20;1.00;;;;;;5054482;28;20222;-55
2022/11/02 09:35:44;;;;;;;5.33;1.60;;;14.10;1.00;;;;;;5058228;28;20197;-54
2022/11/02 09:38:11;;;;;;;11.80;1.90;;;14.00;1.00;;;;;;5062100;28;20558;-55
2022/11/02 09:40:39;;;;;;;3.87;1.47;;;14.20;1.00;;;;;;5057312;28;20224;-55
2022/11/02 09:43:27;;;;;;;7.93;1.90;;;14.30;1.00;;;;;;5062181;28;20204;-55
2022/11/02 09:46:18;;;;;;;8.37;1.60;;;14.50;1.00;;;;;;5062398;28;20567;-55
2022/11/02 09:48:50;;;;;;;10.20;1.50;;;14.20;1.00;;;;;;5049758;28;20222;-55
2022/11/02 09:51:25;;;;;;;8.93;1.97;;;14.10;1.00;;;;;;5057764;28;20212;-55
2022/11/02 09:54:04;;;;;;;9.77;2.73;;;14.40;1.00;;;;;;5060253;28;20233;-55
2022/11/02 09:56:32;;;;;;;7.73;2.27;;;14.50;1.00;;;;;;5058155;28;20218;-55
2022/11/02 09:59:05;;;;;;;10.17;1.63;;;14.50;1.00;;;;;;5064742;28;20679;-56
2022/11/02 10:01:49;;;;;;;8.30;1.63;;;14.80;1.00;;;;;;5068041;28;20731;-55
2022/11/02 10:04:33;;;;;;;5.80;1.97;;;14.80;1.00;;;;;;5063600;28;20230;-56
2022/11/02 10:07:15;;;;;;;10.23;2.00;;;14.80;1.00;;;;;;5062738;28;20229;-61
2022/11/02 10:09:42;;;;;;;12.47;2.43;;;14.80;1.00;;;;;;5066013;28;20231;-55
2022/11/02 10:12:15;;;;;;;7.07;2.13;;;14.60;1.00;;;;;;5063914;28;20209;-56
2022/11/02 10:15:15;;;;;;;9.23;1.87;;;14.40;1.00;;;;;;5056235;28;20200;-56
2022/11/02 10:17:43;;;;;;;9.67;1.93;;;14.40;1.00;;;;;;5055800;28;20221;-55
2022/11/02 10:20:24;;;;;;;11.57;2.23;;;14.30;1.00;;;;;;5059142;28;20703;-56
2022/11/02 10:22:56;;;;;;;5.83;1.50;;;14.40;1.00;;;;;;5052597;28;20205;-55
2022/11/02 10:25:24;;;;;;;8.50;2.00;;;14.80;1.00;;;;;;5062008;28;20198;-55
2022/11/02 10:28:02;;;;;;;8.70;2.17;;;14.80;1.00;;;;;;5058901;28;20274;-55
2022/11/02 10:30:31;;;;;;;9.00;1.40;;;14.70;1.00;;;;;;5059635;28;20364;-55
2022/11/02 10:32:58;;;;;;;11.37;2.00;;;14.70;1.00;;;;;;5058701;28;20210;-54
2022/11/02 10:36:06;;;;;;;9.20;1.70;;;14.70;1.00;;;;;;5061320;28;20821;-55
2022/11/02 10:38:54;;;;;;;5.63;1.37;;;14.80;1.00;;;;;;5056927;28;20199;-55
2022/11/02 10:41:33;;;;;;;6.00;1.40;;;15.10;1.00;;;;;;5066292;28;20597;-55
2022/11/02 10:44:15;;;;;;;10.27;1.33;;;15.10;1.00;;;;;;5059763;28;20323;-54
2022/11/02 10:46:52;;;;;;;12.73;1.77;;;15.10;1.00;;;;;;5061311;28;20286;-56
2022/11/02 10:49:46;;;;;;;7.27;1.70;;;15.30;1.00;;;;;;5063094;28;20227;-55
2022/11/02 10:52:15;;;;;;;11.50;1.97;;;15.00;1.00;;;;;;5063065;28;20201;-54
2022/11/02 10:54:42;;;;;;;9.27;2.70;;;14.90;1.00;;;;;;5061343;28;20643;-59
2022/11/02 10:57:13;;;;;;;12.07;1.57;;;14.90;1.00;;;;;;5060370;28;20218;-55
2022/11/02 10:59:40;;;;;;;3.93;1.33;;;15.10;1.00;;;;;;5057868;28;20536;-56
2022/11/02 11:02:12;;;;;;;11.47;1.90;;;15.10;1.00;;;;;;5066357;28;20228;-55
2022/11/02 11:04:40;;;;;;;11.00;2.37;;;15.10;1.00;;;;;;5061233;28;20847;-55
2022/11/02 11:07:22;;;;;;;5.83;1.47;;;15.20;1.00;;;;;;5063033;28;20240;-57
2022/11/02 11:09:53;;;;;;;7.93;2.37;;;15.40;1.00;;;;;;5067363;28;20228;-56
2022/11/02 11:12:39;;;;;;;7.53;1.53;;;15.40;1.00;;;;;;5062757;28;20218;-55
2022/11/02 11:15:18;;;;;;;8.20;2.00;;;15.40;1.00;;;;;;5063497;28;20688;-55
2022/11/02 11:18:13;;;;;;;8.77;1.87;;;15.70;1.00;;;;;;5064094;28;20690;-57
2022/11/02 11:21:00;;;;;;;7.23;1.57;;;16.00;99.90;;;;;;5063501;28;20212;-55
2022/11/02 11:23:27;;;;;;;10.13;2.23;;;15.70;99.90;;;;;;5068949;28;20208;-55
2022/11/02 11:26:07;;;;;;;6.83;1.33;;;15.90;99.90;;;;;;5067559;28;20575;-55
2022/11/02 11:28:54;;;;;;;7.07;1.80;;;15.80;99.90;;;;;;5060427;28;20217;-55
2022/11/02 11:31:21;;;;;;;5.80;1.70;;;15.80;99.90;;;;;;5079165;28;20191;-55
2022/11/02 11:33:56;;;;;;;7.77;1.50;;;15.60;99.90;;;;;;5066501;28;20291;-55
2022/11/02 11:36:29;;;;;;;10.47;1.67;;;15.70;99.90;;;;;;5060065;28;20208;-56
2022/11/02 11:39:21;;;;;;;5.80;1.30;;;15.60;99.90;;;;;;5065994;28;20618;-55
2022/11/02 11:41:48;;;;;;;8.17;1.53;;;15.90;99.90;;;;;;5053986;28;20300;-55
2022/11/02 11:44:15;;;;;;;6.40;1.57;;;16.00;99.90;;;;;;5062063;28;20298;-55
2022/11/02 11:46:45;;;;;;;4.60;1.50;;;16.00;99.90;;;;;;5064963;28;20553;-56
2022/11/02 11:49:26;;;;;;;6.10;1.37;;;16.20;99.90;;;;;;5059823;28;20295;-55
2022/11/02 11:52:18;;;;;;;9.47;1.30;;;16.30;99.90;;;;;;5061545;28;20204;-55
2022/11/02 11:54:56;;;;;;;5.03;1.97;;;16.60;99.90;;;;;;5057504;28;20837;-65
2022/11/02 11:57:30;;;;;;;3.80;1.00;;;16.80;77.70;;;;;;5055814;28;20229;-61
2022/11/02 12:00:03;;;;;;;5.23;1.50;;;16.60;62.00;;;;;;5059816;28;20204;-62
2022/11/02 12:02:32;;;;;;;6.23;1.03;;;16.40;81.20;;;;;;5060623;28;20197;-62
2022/11/02 12:05:22;;;;;;;7.93;1.33;;;16.60;47.30;;;;;;5064528;28;20237;-62
2022/11/02 12:08:11;;;;;;;10.93;1.53;;;16.20;99.90;;;;;;5080673;28;20253;-61
2022/11/02 12:10:55;;;;;;;7.60;1.40;;;16.10;99.90;;;;;;5057909;28;20230;-62
2022/11/02 12:13:43;;;;;;;7.97;1.60;;;16.30;99.90;;;;;;5060158;28;20566;-61
2022/11/02 12:16:32;;;;;;;6.67;1.40;;;16.10;99.90;;;;;;5060772;28;20383;-62
2022/11/02 12:19:07;;;;;;;6.93;1.33;;;16.40;99.90;;;;;;5064439;28;20191;-61
2022/11/02 12:22:05;;;;;;;10.20;1.63;;;16.20;99.90;;;;;;5066453;28;20186;-61
2022/11/02 12:24:50;;;;;;;6.33;1.43;;;15.60;99.90;;;;;;5047304;28;20267;-62
2022/11/02 12:27:32;;;;;;;10.13;2.23;;;15.90;99.90;;;;;;5058813;28;20193;-61
2022/11/02 12:30:28;;;;;;;7.77;1.40;;;16.60;99.90;;;;;;5053819;28;20229;-62
2022/11/02 12:33:21;;;;;;;6.87;1.87;;;16.70;99.90;;;;;;5058719;28;20232;-62
2022/11/02 12:36:00;;;;;;;7.13;1.37;;;17.20;62.20;;;;;;5057237;28;20892;-62
2022/11/02 12:38:43;;;;;;;9.97;1.83;;;17.90;5.30;;;;;;5057744;28;20195;-62
2022/11/02 12:41:37;;;;;;;5.80;1.30;;;17.90;1.00;;;;;;5060935;28;20590;-63
2022/11/02 12:44:25;;;;;;;8.53;1.63;;;17.50;1.00;;;;;;5062964;28;20205;-62
2022/11/02 12:46:58;;;;;;;4.93;1.40;;;17.30;1.00;;;;;;5075110;28;20591;-62
2022/11/02 12:49:54;;;;;;;7.03;1.63;;;17.10;1.00;;;;;;5059302;28;20206;-62
2022/11/02 12:52:48;;;;;;;4.87;1.30;;;16.90;99.90;;;;;;5050911;28;20309;-63
2022/11/02 12:55:20;;;;;;;7.33;1.43;;;16.60;99.90;;;;;;5058159;28;21942;-62
2022/11/02 12:57:47;;;;;;;8.73;1.87;;;16.40;99.90;;;;;;5063795;28;20203;-61
2022/11/02 13:00:19;;;;;;;7.57;1.70;;;16.40;99.90;;;;;;5078569;28;20622;-62
2022/11/02 13:03:27;;;;;;;10.13;1.70;;;16.10;99.90;;;;;;5061048;28;20213;-61
2022/11/02 13:06:01;;;;;;;22.47;3.20;;;15.70;99.90;;;;;;5058753;28;20210;-61
2022/11/02 13:08:41;;;;;;;13.50;2.10;;;16.10;99.90;;;;;;5062986;28;20690;-61
2022/11/02 13:11:24;;;;;;;11.53;1.53;;;16.20;99.90;;;;;;5057689;28;20234;-61
2022/11/02 13:13:55;;;;;;;5.97;1.50;;;16.30;99.90;;;;;;5061135;28;20208;-61
2022/11/02 13:16:45;;;;;;;5.47;1.57;;;15.80;99.90;;;;;;5060627;28;20206;-61
2022/11/02 13:19:22;;;;;;;8.40;1.97;;;15.60;99.90;;;;;;5064899;28;20202;-62
2022/11/02 13:21:54;;;;;;;11.33;1.93;;;15.60;99.90;;;;;;5062596;28;20294;-61
2022/11/02 13:24:31;;;;;;;8.70;2.20;;;15.70;99.90;;;;;;5061737;28;20247;-61
2022/11/02 13:27:02;;;;;;;9.70;1.40;;;15.70;99.90;;;;;;5061066;28;20200;-62
2022/11/02 13:29:49;;;;;;;10.60;1.60;;;15.50;1.00;;;;;;5063001;28;20325;-62
2022/11/02 13:32:34;;;;;;;8.90;1.43;;;15.80;99.90;;;;;;5066814;28;20258;-61